Time;durP1;ratioP1;P1;durP2;ratioP2;P2;SDS_P1;SDS_P2;PMS_P1;PMS_P2;Temp;Humidity;BMP_temperature;BMP_pressure;BME280_temperature;BME280_humidity;BME280_pressure;Samples;Min_cycle;Max_cycle;Signal;HPM_P1;HPM_P2
2024/04/24 00:00:15;;;;;;;19.50;15.27;;;6.00;99.90;;;;;;5370032;26;20268;-74
2024/04/24 00:02:40;;;;;;;19.30;16.43;;;6.00;99.90;;;;;;5369814;26;20334;-74
2024/04/24 00:05:06;;;;;;;16.13;14.37;;;6.00;99.90;;;;;;5339672;26;20719;-74
2024/04/24 00:07:32;;;;;;;18.17;15.10;;;6.00;99.90;;;;;;5370455;26;20704;-73
2024/04/24 00:09:58;;;;;;;19.00;14.03;;;6.00;99.90;;;;;;5370107;26;20300;-74
2024/04/24 00:12:23;;;;;;;16.83;13.17;;;6.00;99.90;;;;;;5368323;26;20209;-74
2024/04/24 00:14:49;;;;;;;19.50;13.70;;;6.00;99.90;;;;;;5406094;26;20764;-74
2024/04/24 00:17:14;;;;;;;16.70;14.67;;;6.00;99.90;;;;;;5370238;26;20656;-74
2024/04/24 00:19:40;;;;;;;22.07;14.23;;;6.00;99.90;;;;;;5370047;26;20221;-74
2024/04/24 00:22:06;;;;;;;17.17;13.70;;;6.00;99.90;;;;;;5369939;26;20225;-74
2024/04/24 00:24:32;;;;;;;17.27;14.00;;;6.00;99.90;;;;;;5370347;26;20310;-73
2024/04/24 00:26:57;;;;;;;17.93;12.87;;;5.90;99.90;;;;;;5370089;26;20278;-74
2024/04/24 00:29:23;;;;;;;16.43;12.97;;;5.90;99.90;;;;;;5370000;26;20256;-74
2024/04/24 00:31:50;;;;;;;19.07;13.00;;;5.90;99.90;;;;;;5369350;26;20302;-73
2024/04/24 00:34:16;;;;;;;15.83;12.07;;;5.90;99.90;;;;;;5370339;26;20596;-74
2024/04/24 00:36:41;;;;;;;18.77;11.90;;;5.90;99.90;;;;;;5339048;26;20217;-73
2024/04/24 00:39:07;;;;;;;16.17;12.20;;;5.90;99.90;;;;;;5369897;26;20256;-73
2024/04/24 00:41:32;;;;;;;20.90;12.17;;;5.80;99.90;;;;;;5369714;26;20261;-73
2024/04/24 00:43:58;;;;;;;17.43;11.07;;;5.80;99.90;;;;;;5370155;26;20213;-73
2024/04/24 00:46:26;;;;;;;15.97;11.13;;;5.70;99.90;;;;;;5369984;26;20317;-73
2024/04/24 00:48:53;;;;;;;20.00;11.83;;;5.60;99.90;;;;;;5367573;26;20268;-74
2024/04/24 00:51:20;;;;;;;14.87;10.37;;;5.60;99.90;;;;;;5369827;26;20225;-74
2024/04/24 00:53:46;;;;;;;16.07;11.17;;;5.50;99.90;;;;;;5369523;26;20213;-74
2024/04/24 00:56:12;;;;;;;14.40;10.73;;;5.40;99.90;;;;;;5370355;26;20217;-73
2024/04/24 00:58:38;;;;;;;14.47;10.47;;;5.40;99.90;;;;;;5369130;26;20301;-74
2024/04/24 01:01:05;;;;;;;16.90;10.57;;;5.30;99.90;;;;;;5368839;26;20268;-74
2024/04/24 01:03:32;;;;;;;15.50;10.27;;;5.20;99.90;;;;;;5369484;26;20248;-73
2024/04/24 01:05:57;;;;;;;14.13;10.27;;;5.20;99.90;;;;;;5369579;26;20217;-74
2024/04/24 01:08:23;;;;;;;11.97;9.43;;;5.20;99.90;;;;;;5369524;26;20734;-74
2024/04/24 01:10:59;;;;;;;20.90;9.37;;;5.10;99.90;;;;;;5369018;26;20233;-73
2024/04/24 01:13:25;;;;;;;15.90;10.10;;;5.10;99.90;;;;;;5369534;26;20218;-73
2024/04/24 01:16:02;;;;;;;17.00;9.50;;;5.00;99.90;;;;;;5369026;26;20210;-74
2024/04/24 01:18:30;;;;;;;13.37;9.63;;;5.00;99.90;;;;;;5404414;26;20213;-73
2024/04/24 01:20:57;;;;;;;11.97;10.00;;;5.00;99.90;;;;;;5368768;26;20226;-73
2024/04/24 01:23:46;;;;;;;13.47;9.70;;;4.90;99.90;;;;;;5368803;26;20217;-73
2024/04/24 01:26:14;;;;;;;12.20;9.60;;;5.00;99.90;;;;;;5372048;26;20229;-74
2024/04/24 01:28:40;;;;;;;9.60;8.23;;;5.00;99.90;;;;;;5372334;26;20210;-74
2024/04/24 01:31:06;;;;;;;12.73;9.00;;;5.00;99.90;;;;;;5371629;26;20767;-73
2024/04/24 01:33:31;;;;;;;11.73;8.10;;;5.10;99.90;;;;;;5371596;26;20336;-74
2024/04/24 01:35:57;;;;;;;10.30;7.93;;;5.10;99.90;;;;;;5372198;26;20252;-73
2024/04/24 01:38:22;;;;;;;10.77;8.17;;;5.10;99.90;;;;;;5371921;26;20293;-74
2024/04/24 01:40:48;;;;;;;12.50;8.07;;;5.00;99.90;;;;;;5371927;26;20269;-72
2024/04/24 01:43:14;;;;;;;13.30;8.10;;;5.00;99.90;;;;;;5372038;26;20213;-73
2024/04/24 01:45:40;;;;;;;11.90;8.33;;;5.00;99.90;;;;;;5372398;26;20296;-73
2024/04/24 01:48:06;;;;;;;14.07;8.23;;;5.00;99.90;;;;;;5372128;26;20206;-72
2024/04/24 01:50:32;;;;;;;13.07;7.43;;;4.90;99.90;;;;;;5371505;26;20325;-73
2024/04/24 01:52:57;;;;;;;10.93;7.47;;;4.90;99.90;;;;;;5371559;26;20229;-73
2024/04/24 01:55:23;;;;;;;9.63;7.23;;;5.00;99.90;;;;;;5372298;26;20260;-72
2024/04/24 01:57:49;;;;;;;11.73;6.77;;;5.00;99.90;;;;;;5371880;26;20264;-73
2024/04/24 02:00:14;;;;;;;11.43;7.07;;;5.00;99.90;;;;;;5371905;26;20257;-73
2024/04/24 02:02:40;;;;;;;9.90;6.90;;;5.10;99.90;;;;;;5371864;26;20595;-73
2024/04/24 02:05:06;;;;;;;15.37;6.90;;;5.10;99.90;;;;;;5371973;26;20214;-73
2024/04/24 02:07:31;;;;;;;9.77;6.40;;;5.10;99.90;;;;;;5372117;26;20502;-73
2024/04/24 02:09:57;;;;;;;15.80;7.30;;;5.20;99.90;;;;;;5371970;26;20318;-73
2024/04/24 02:12:22;;;;;;;13.47;7.10;;;5.10;99.90;;;;;;5371932;26;20705;-73
2024/04/24 02:14:48;;;;;;;12.17;6.20;;;5.10;99.90;;;;;;5371790;26;20688;-73
2024/04/24 02:17:14;;;;;;;12.63;7.27;;;5.10;99.90;;;;;;5372109;26;20213;-72
2024/04/24 02:19:42;;;;;;;13.10;6.50;;;5.10;99.90;;;;;;5371836;26;20213;-73
2024/04/24 02:22:07;;;;;;;11.60;6.70;;;5.10;99.90;;;;;;5371195;26;20226;-73
2024/04/24 02:27:17;;;;;;;6.53;5.80;;;5.00;99.90;;;;;;5371808;26;20260;-73
2024/04/24 02:29:43;;;;;;;11.37;5.93;;;5.00;99.90;;;;;;5371205;26;20693;-73
2024/04/24 02:32:08;;;;;;;16.30;6.23;;;5.00;99.90;;;;;;5371626;26;20264;-73
2024/04/24 02:34:34;;;;;;;13.87;5.90;;;4.90;99.90;;;;;;5371291;26;20553;-73
2024/04/24 02:36:59;;;;;;;7.70;6.53;;;4.90;99.90;;;;;;5370579;26;20247;-73
2024/04/24 02:39:25;;;;;;;11.47;5.37;;;4.90;99.90;;;;;;5371462;26;20229;-73
2024/04/24 02:41:50;;;;;;;6.40;5.47;;;4.90;99.90;;;;;;5371457;26;20229;-73
2024/04/24 02:44:16;;;;;;;11.00;6.03;;;4.90;99.90;;;;;;5407858;26;20563;-72
2024/04/24 02:46:42;;;;;;;7.37;5.30;;;4.90;99.90;;;;;;5371306;26;20256;-72
2024/04/24 02:49:07;;;;;;;11.47;5.87;;;4.90;99.90;;;;;;5371305;26;20233;-72
2024/04/24 02:51:33;;;;;;;13.27;5.87;;;4.90;99.90;;;;;;5371237;26;20571;-72
2024/04/24 02:53:58;;;;;;;7.83;5.57;;;4.90;99.90;;;;;;5340302;26;20313;-72
2024/04/24 02:56:24;;;;;;;7.80;5.80;;;4.90;99.90;;;;;;5371392;26;20762;-73
2024/04/24 02:58:50;;;;;;;8.93;6.17;;;4.90;99.90;;;;;;5370962;26;20259;-73
2024/04/24 03:01:15;;;;;;;15.67;6.20;;;4.90;99.90;;;;;;5370855;26;20616;-72
2024/04/24 03:03:41;;;;;;;7.83;6.40;;;4.90;99.90;;;;;;5371063;26;20744;-73
2024/04/24 03:06:07;;;;;;;10.33;5.87;;;4.90;99.90;;;;;;5371242;26;20257;-73
2024/04/24 03:08:33;;;;;;;11.43;6.23;;;4.90;99.90;;;;;;5371385;26;20685;-72
2024/04/24 03:10:58;;;;;;;8.40;5.67;;;4.90;99.90;;;;;;5370525;26;20663;-72
2024/04/24 03:13:24;;;;;;;9.30;6.20;;;5.00;99.90;;;;;;5371101;26;20221;-72
2024/04/24 03:15:49;;;;;;;12.90;6.10;;;5.10;99.90;;;;;;5371065;26;20272;-72
2024/04/24 03:18:15;;;;;;;10.70;6.07;;;5.00;99.90;;;;;;5370673;26;20758;-72
2024/04/24 03:20:40;;;;;;;11.00;5.80;;;5.10;99.90;;;;;;5370331;26;20268;-72
2024/04/24 03:23:06;;;;;;;10.73;7.03;;;5.10;99.90;;;;;;5369197;26;20683;-72
2024/04/24 03:25:32;;;;;;;8.23;5.63;;;5.10;99.90;;;;;;5371106;26;20252;-73
2024/04/24 03:27:57;;;;;;;15.27;6.93;;;5.10;99.90;;;;;;5370976;26;20537;-72
2024/04/24 03:30:23;;;;;;;9.60;6.13;;;5.10;99.90;;;;;;5370437;26;20226;-73
2024/04/24 03:32:48;;;;;;;9.10;6.43;;;5.10;99.90;;;;;;5370701;26;20658;-73
2024/04/24 03:35:14;;;;;;;14.37;6.87;;;5.10;99.90;;;;;;5370473;26;20217;-73
2024/04/24 03:37:40;;;;;;;11.90;6.70;;;5.10;99.90;;;;;;5370568;26;20592;-72
2024/04/24 03:40:06;;;;;;;12.63;6.40;;;5.10;99.90;;;;;;5370686;26;20257;-73
2024/04/24 03:42:32;;;;;;;11.47;7.13;;;5.10;99.90;;;;;;5370351;26;20317;-73
2024/04/24 03:44:57;;;;;;;10.50;6.83;;;5.10;99.90;;;;;;5370421;26;20631;-72
2024/04/24 03:47:23;;;;;;;11.97;7.07;;;5.10;99.90;;;;;;5371192;26;20712;-72
2024/04/24 03:49:48;;;;;;;8.23;6.60;;;5.10;99.90;;;;;;5370443;26;20225;-72
2024/04/24 03:52:14;;;;;;;12.73;6.40;;;5.10;99.90;;;;;;5370593;26;20218;-72
2024/04/24 03:54:40;;;;;;;11.27;6.37;;;5.10;99.90;;;;;;5370328;26;20555;-73
2024/04/24 03:57:05;;;;;;;13.70;6.60;;;5.10;99.90;;;;;;5370290;26;20218;-72
2024/04/24 03:59:31;;;;;;;9.67;5.60;;;5.20;99.90;;;;;;5370656;26;20260;-73
2024/04/24 04:01:56;;;;;;;9.27;6.10;;;5.20;99.90;;;;;;5370122;26;20217;-73
2024/04/24 04:04:22;;;;;;;6.77;5.17;;;5.20;99.90;;;;;;5370475;26;20210;-72
2024/04/24 04:06:48;;;;;;;12.17;6.10;;;5.20;99.90;;;;;;5369947;26;20594;-73
2024/04/24 04:09:13;;;;;;;8.03;5.63;;;5.20;99.90;;;;;;5370326;26;20222;-72
2024/04/24 04:11:39;;;;;;;6.63;5.60;;;5.20;99.90;;;;;;5369922;26;20362;-73
2024/04/24 04:14:04;;;;;;;7.53;5.20;;;5.20;99.90;;;;;;5370009;26;20310;-72
2024/04/24 04:16:31;;;;;;;8.33;5.20;;;5.20;99.90;;;;;;5369709;26;20261;-72
2024/04/24 04:18:57;;;;;;;9.57;6.37;;;5.20;99.90;;;;;;5370170;26;20217;-72
2024/04/24 04:21:23;;;;;;;6.27;5.63;;;5.20;99.90;;;;;;5369817;26;20272;-72
2024/04/24 04:23:48;;;;;;;10.57;5.60;;;5.20;99.90;;;;;;5370133;26;20309;-72
2024/04/24 04:26:14;;;;;;;9.63;5.60;;;5.20;99.90;;;;;;5369758;26;20225;-73
2024/04/24 04:28:39;;;;;;;17.87;5.90;;;5.20;99.90;;;;;;5369747;26;20675;-73
2024/04/24 04:31:05;;;;;;;6.67;5.50;;;5.20;99.90;;;;;;5369703;26;20244;-72
2024/04/24 04:33:31;;;;;;;9.97;5.43;;;5.30;99.90;;;;;;5370266;26;20321;-72
2024/04/24 04:35:56;;;;;;;8.13;5.80;;;5.30;99.90;;;;;;5370700;26;20598;-73
2024/04/24 04:38:22;;;;;;;7.87;5.77;;;5.30;99.90;;;;;;5370482;26;20317;-73
2024/04/24 04:40:48;;;;;;;6.10;4.70;;;5.30;99.90;;;;;;5370327;26;20237;-74
2024/04/24 04:43:13;;;;;;;6.03;4.83;;;5.30;99.90;;;;;;5369752;26;20213;-72
2024/04/24 04:45:39;;;;;;;9.43;5.17;;;5.40;99.90;;;;;;5369972;26;20745;-72
2024/04/24 04:48:07;;;;;;;5.37;4.60;;;5.30;99.90;;;;;;5369666;26;20277;-73
2024/04/24 04:50:33;;;;;;;5.37;4.87;;;5.30;99.90;;;;;;5369074;26;20629;-73
2024/04/24 04:52:59;;;;;;;5.03;4.60;;;5.30;99.90;;;;;;5369098;26;20213;-72
2024/04/24 04:55:24;;;;;;;5.83;4.70;;;5.30;99.90;;;;;;5369757;26;20674;-73
2024/04/24 04:57:50;;;;;;;4.73;4.43;;;5.30;99.90;;;;;;5369350;26;20322;-73
2024/04/24 05:00:17;;;;;;;5.80;4.97;;;5.30;99.90;;;;;;5371986;26;20470;-72
2024/04/24 05:02:44;;;;;;;4.90;4.60;;;5.30;99.90;;;;;;5372352;26;20248;-73
2024/04/24 05:05:10;;;;;;;5.53;5.03;;;5.40;99.90;;;;;;5372399;26;20233;-73
2024/04/24 05:07:35;;;;;;;7.37;5.00;;;5.40;99.90;;;;;;5372717;26;20394;-73
2024/04/24 05:10:02;;;;;;;8.00;5.90;;;5.40;99.90;;;;;;5372386;26;20779;-72
2024/04/24 05:12:27;;;;;;;9.23;5.90;;;5.40;99.90;;;;;;5372328;26;20209;-73
2024/04/24 05:14:53;;;;;;;6.50;5.90;;;5.40;99.90;;;;;;5372460;26;20213;-73
2024/04/24 05:17:18;;;;;;;9.50;6.00;;;5.40;99.90;;;;;;5371930;26;20559;-73
2024/04/24 05:19:44;;;;;;;10.57;6.07;;;5.40;99.90;;;;;;5371994;26;20333;-73
2024/04/24 05:22:10;;;;;;;8.90;6.07;;;5.40;99.90;;;;;;5372754;26;20209;-73
2024/04/24 05:24:36;;;;;;;27.03;13.90;;;5.40;99.90;;;;;;5372779;26;20225;-73
2024/04/24 05:29:46;;;;;;;10.40;6.57;;;5.50;99.90;;;;;;5371806;26;20275;-73
2024/04/24 05:32:12;;;;;;;9.20;6.93;;;5.50;99.90;;;;;;5371872;26;20322;-73
2024/04/24 05:34:38;;;;;;;23.03;14.33;;;5.50;99.90;;;;;;5372290;26;20225;-73
2024/04/24 05:37:04;;;;;;;11.50;7.20;;;5.60;99.90;;;;;;5372107;26;20297;-73
2024/04/24 05:39:29;;;;;;;13.77;7.30;;;5.70;99.90;;;;;;5372069;26;20671;-73
2024/04/24 05:41:55;;;;;;;8.90;6.30;;;5.70;99.90;;;;;;5371683;26;20284;-73
2024/04/24 05:44:22;;;;;;;34.17;31.90;;;5.70;99.90;;;;;;5371652;26;20228;-73
2024/04/24 05:46:48;;;;;;;6.97;6.27;;;5.70;99.90;;;;;;5371942;26;20269;-73
2024/04/24 05:49:13;;;;;;;7.77;6.97;;;5.70;99.90;;;;;;5371989;26;20253;-74
2024/04/24 05:51:39;;;;;;;6.80;6.13;;;5.70;99.90;;;;;;5372811;26;20237;-73
2024/04/24 05:54:04;;;;;;;7.83;6.60;;;5.80;99.90;;;;;;5379445;26;20273;-73
2024/04/24 05:56:30;;;;;;;7.63;6.87;;;5.70;99.90;;;;;;5372313;26;20209;-74
2024/04/24 05:58:56;;;;;;;7.10;6.40;;;5.80;99.90;;;;;;5371820;26;20256;-74
2024/04/24 06:01:22;;;;;;;6.07;5.57;;;5.90;99.90;;;;;;5372013;26;20284;-73
2024/04/24 06:03:47;;;;;;;10.07;6.20;;;5.90;99.90;;;;;;5371795;26;20313;-73
2024/04/24 06:06:13;;;;;;;12.33;6.40;;;6.00;99.90;;;;;;5372285;26;20210;-73
2024/04/24 06:08:39;;;;;;;7.27;6.57;;;6.00;99.90;;;;;;5371874;26;20229;-73
2024/04/24 06:11:04;;;;;;;10.17;5.77;;;6.10;99.90;;;;;;5369995;26;20252;-72
2024/04/24 06:13:30;;;;;;;8.60;5.50;;;6.30;99.90;;;;;;5369399;26;20271;-73
2024/04/24 06:15:55;;;;;;;8.40;5.27;;;6.40;99.90;;;;;;5374228;26;20322;-73
2024/04/24 06:18:21;;;;;;;6.23;4.77;;;6.50;99.90;;;;;;5373305;26;20241;-74
2024/04/24 06:20:46;;;;;;;5.13;4.47;;;6.60;99.90;;;;;;5374008;26;20381;-74
2024/04/24 06:23:12;;;;;;;5.73;5.17;;;6.80;99.90;;;;;;5373109;26;20601;-74
2024/04/24 06:25:38;;;;;;;6.17;4.93;;;6.90;99.90;;;;;;5372629;26;20260;-73
2024/04/24 06:28:03;;;;;;;9.43;4.87;;;7.10;99.90;;;;;;5373151;26;20748;-73
2024/04/24 06:30:29;;;;;;;8.23;4.10;;;7.10;99.90;;;;;;5370691;26;20241;-73
2024/04/24 06:32:55;;;;;;;7.27;4.27;;;7.20;99.90;;;;;;5371635;26;20214;-73
2024/04/24 06:35:20;;;;;;;5.73;4.80;;;7.40;99.90;;;;;;5371833;26;20210;-74
2024/04/24 06:37:48;;;;;;;6.87;4.17;;;7.60;99.90;;;;;;5371119;26;20217;-73
2024/04/24 06:40:13;;;;;;;5.57;4.00;;;7.80;99.90;;;;;;5370704;26;20264;-71
2024/04/24 06:42:39;;;;;;;6.17;4.60;;;7.80;99.90;;;;;;5370608;26;20217;-72
2024/04/24 06:45:06;;;;;;;7.20;4.60;;;7.60;99.90;;;;;;5370981;26;20209;-72
2024/04/24 06:47:31;;;;;;;4.93;4.20;;;7.30;99.90;;;;;;5371193;26;20233;-72
2024/04/24 06:49:57;;;;;;;7.27;4.17;;;7.30;99.90;;;;;;5370698;26;20766;-71
2024/04/24 06:52:22;;;;;;;5.20;4.30;;;7.50;99.90;;;;;;5371064;26;20237;-72
2024/04/24 06:54:48;;;;;;;7.73;6.13;;;7.80;99.90;;;;;;5370869;26;20210;-72
2024/04/24 06:57:14;;;;;;;7.17;3.83;;;8.20;99.90;;;;;;5371082;26;20260;-72
2024/04/24 06:59:39;;;;;;;8.57;3.80;;;8.60;99.90;;;;;;5339474;26;20314;-72
2024/04/24 07:02:05;;;;;;;6.27;4.17;;;9.00;99.90;;;;;;5370643;26;20223;-72
2024/04/24 07:04:30;;;;;;;4.93;3.97;;;9.10;99.90;;;;;;5370803;26;20210;-73
2024/04/24 07:06:56;;;;;;;4.10;3.70;;;8.90;99.90;;;;;;5370301;26;20601;-72
2024/04/24 07:09:22;;;;;;;8.87;3.93;;;8.80;99.90;;;;;;5370568;26;20329;-75
2024/04/24 07:11:47;;;;;;;8.63;3.80;;;8.70;99.90;;;;;;5370226;26;20218;-73
2024/04/24 07:14:13;;;;;;;6.60;4.13;;;8.50;99.90;;;;;;5370139;26;20218;-74
2024/04/24 07:16:40;;;;;;;8.53;4.10;;;8.00;99.90;;;;;;5370416;26;20716;-73
2024/04/24 07:19:06;;;;;;;4.43;3.87;;;7.80;99.90;;;;;;5367568;26;20225;-71
2024/04/24 07:21:32;;;;;;;5.03;4.10;;;7.60;99.90;;;;;;5369321;26;20260;-73
2024/04/24 07:23:58;;;;;;;4.33;3.33;;;7.90;99.90;;;;;;5370007;26;20226;-73
2024/04/24 07:26:23;;;;;;;4.43;3.60;;;7.90;99.90;;;;;;5370246;26;20257;-72
2024/04/24 07:28:49;;;;;;;4.77;4.10;;;8.20;99.90;;;;;;5369931;26;20305;-72
2024/04/24 07:31:15;;;;;;;5.83;3.90;;;8.50;99.90;;;;;;5370104;26;20728;-72
2024/04/24 07:33:40;;;;;;;3.80;3.50;;;8.90;99.90;;;;;;5370366;26;20245;-73
2024/04/24 07:36:06;;;;;;;5.10;3.73;;;8.90;99.90;;;;;;5369945;26;20221;-72
2024/04/24 07:38:32;;;;;;;8.97;4.50;;;9.20;99.90;;;;;;5370500;26;20210;-72
2024/04/24 07:43:26;;;;;;;5.10;3.97;;;9.60;99.90;;;;;;5485247;26;20230;-71
2024/04/24 07:45:52;;;;;;;6.33;4.27;;;9.70;99.90;;;;;;5488238;26;20704;-72
2024/04/24 07:48:19;;;;;;;9.07;3.97;;;9.60;99.90;;;;;;5489161;26;20318;-72
2024/04/24 07:50:46;;;;;;;6.50;3.70;;;9.70;99.90;;;;;;5487339;26;20214;-74
2024/04/24 07:53:13;;;;;;;7.83;3.90;;;10.10;99.90;;;;;;5487244;26;20741;-73
2024/04/24 07:55:39;;;;;;;6.30;3.73;;;10.40;99.90;;;;;;5487723;26;20206;-74
2024/04/24 07:58:04;;;;;;;12.20;5.73;;;10.70;99.90;;;;;;5487451;26;20256;-73
2024/04/24 08:00:30;;;;;;;6.67;4.10;;;10.70;99.90;;;;;;5486861;26;20225;-73
2024/04/24 08:02:55;;;;;;;7.63;5.87;;;10.60;99.90;;;;;;5487546;26;20207;-73
2024/04/24 08:05:22;;;;;;;7.17;3.77;;;10.30;99.90;;;;;;5486887;26;20615;-72
2024/04/24 08:07:47;;;;;;;4.37;3.57;;;10.10;99.90;;;;;;5486601;26;20277;-73
2024/04/24 08:10:13;;;;;;;7.27;3.53;;;10.30;99.90;;;;;;5471909;26;20278;-73
2024/04/24 08:12:39;;;;;;;6.30;3.83;;;10.30;99.90;;;;;;5486490;26;20260;-73
2024/04/24 08:15:05;;;;;;;19.93;13.70;;;10.00;99.90;;;;;;5486979;26;20252;-73
2024/04/24 08:17:31;;;;;;;5.47;3.97;;;9.90;99.90;;;;;;5486907;26;20277;-73
2024/04/24 08:19:56;;;;;;;7.77;3.63;;;10.30;99.90;;;;;;5487132;26;20268;-73
2024/04/24 08:22:22;;;;;;;6.27;3.63;;;10.50;99.90;;;;;;5487062;26;20210;-74
2024/04/24 08:24:48;;;;;;;8.13;3.73;;;10.50;99.90;;;;;;5453877;26;20213;-72
2024/04/24 08:27:14;;;;;;;6.17;4.10;;;10.10;99.90;;;;;;5486908;26;20206;-73
2024/04/24 08:29:40;;;;;;;5.17;3.90;;;9.80;99.90;;;;;;5486696;26;20557;-72
2024/04/24 08:32:06;;;;;;;5.47;4.27;;;9.40;99.90;;;;;;5486648;26;20277;-73
2024/04/24 08:34:31;;;;;;;7.53;3.90;;;9.10;99.90;;;;;;5485092;26;20213;-72
2024/04/24 08:36:57;;;;;;;7.00;4.10;;;8.90;99.90;;;;;;5486501;26;20569;-73
2024/04/24 08:39:23;;;;;;;6.43;3.87;;;8.90;99.90;;;;;;5486681;26;20260;-74
2024/04/24 08:41:51;;;;;;;5.00;3.53;;;8.90;99.90;;;;;;5486391;26;20257;-73
2024/04/24 08:44:17;;;;;;;4.97;3.43;;;9.00;99.90;;;;;;5454405;26;20226;-73
2024/04/24 08:46:44;;;;;;;5.53;4.00;;;9.10;99.90;;;;;;5486914;26;20325;-71
2024/04/24 08:49:10;;;;;;;3.63;3.20;;;9.30;99.90;;;;;;5485866;26;20218;-72
2024/04/24 08:51:40;;;;;;;6.73;3.37;;;9.50;99.90;;;;;;5486203;26;20260;-73
2024/04/24 08:54:11;;;;;;;6.93;3.73;;;9.70;99.90;;;;;;5485933;26;20515;-73
2024/04/24 08:56:46;;;;;;;5.13;2.80;;;10.10;99.90;;;;;;5484824;26;20218;-74
2024/04/24 08:59:21;;;;;;;10.70;3.63;;;10.50;99.90;;;;;;5485182;26;20213;-72
2024/04/24 09:01:56;;;;;;;8.60;3.10;;;11.30;99.90;;;;;;5461138;26;20299;-74
2024/04/24 09:04:22;;;;;;;5.27;3.47;;;11.80;99.90;;;;;;5449902;26;20246;-72
2024/04/24 09:06:48;;;;;;;5.53;3.27;;;11.70;99.90;;;;;;5449314;26;21141;-73
2024/04/24 09:09:15;;;;;;;4.47;3.23;;;11.10;99.90;;;;;;5449735;26;20207;-73
2024/04/24 09:11:41;;;;;;;6.63;3.73;;;10.40;99.90;;;;;;5462317;26;20781;-73
2024/04/24 09:14:07;;;;;;;7.63;3.60;;;9.70;99.90;;;;;;5485411;26;20230;-73
2024/04/24 09:16:36;;;;;;;9.73;3.90;;;9.20;99.90;;;;;;5486128;26;20268;-73
2024/04/24 09:19:02;;;;;;;7.10;3.73;;;8.80;99.90;;;;;;5486097;26;20226;-73
2024/04/24 09:21:29;;;;;;;11.50;4.83;;;8.50;99.90;;;;;;5484625;26;20272;-73
2024/04/24 09:23:55;;;;;;;7.50;4.33;;;8.30;99.90;;;;;;5485841;26;20225;-73
2024/04/24 09:26:21;;;;;;;6.17;3.77;;;8.20;99.90;;;;;;5485092;26;20593;-73
2024/04/24 09:28:46;;;;;;;5.40;3.97;;;8.30;99.90;;;;;;5485456;26;20260;-73
2024/04/24 09:31:12;;;;;;;9.30;4.67;;;8.40;99.90;;;;;;5485210;26;20226;-73
2024/04/24 09:33:39;;;;;;;8.80;4.20;;;8.60;99.90;;;;;;5485625;26;20227;-74
2024/04/24 09:36:05;;;;;;;4.83;3.47;;;8.80;99.90;;;;;;5485707;26;20821;-73
2024/04/24 09:38:31;;;;;;;4.60;3.70;;;9.00;99.90;;;;;;5485198;26;20222;-73
2024/04/24 09:41:00;;;;;;;4.30;3.37;;;9.20;99.90;;;;;;5484913;26;20237;-73
2024/04/24 09:43:30;;;;;;;8.00;3.23;;;9.50;99.90;;;;;;5485116;26;20326;-74
2024/04/24 09:45:56;;;;;;;5.70;3.20;;;10.20;99.90;;;;;;5487399;26;20230;-74
2024/04/24 09:48:23;;;;;;;5.93;2.70;;;10.90;99.90;;;;;;5488722;26;20234;-74
2024/04/24 09:50:52;;;;;;;6.57;2.93;;;11.70;99.90;;;;;;5488163;26;20226;-74
2024/04/24 09:53:22;;;;;;;7.53;3.10;;;12.10;96.00;;;;;;5488538;26;20222;-73
2024/04/24 09:56:04;;;;;;;6.83;2.80;;;11.80;91.90;;;;;;5488646;26;20229;-73
2024/04/24 09:58:33;;;;;;;3.20;2.60;;;11.70;88.10;;;;;;5452787;26;20321;-73
2024/04/24 10:01:01;;;;;;;10.60;3.00;;;11.60;77.80;;;;;;5475930;26;20226;-72
2024/04/24 10:03:31;;;;;;;4.33;3.00;;;11.60;82.60;;;;;;5487768;26;20701;-72
2024/04/24 10:05:59;;;;;;;3.87;2.90;;;11.70;84.20;;;;;;5488163;26;20533;-73
2024/04/24 10:08:30;;;;;;;6.60;3.20;;;11.70;91.00;;;;;;5487381;26;20724;-73
2024/04/24 10:10:57;;;;;;;7.20;3.37;;;11.80;85.50;;;;;;5487356;26;20230;-73
2024/04/24 10:13:24;;;;;;;6.80;2.90;;;11.70;67.50;;;;;;5487844;26;20279;-73
2024/04/24 10:15:55;;;;;;;3.70;2.77;;;11.80;75.90;;;;;;5487923;26;20214;-73
2024/04/24 10:18:22;;;;;;;5.90;2.60;;;11.80;74.10;;;;;;5473538;26;20223;-73
2024/04/24 10:20:49;;;;;;;5.50;3.47;;;12.00;77.40;;;;;;5450669;26;20356;-74
2024/04/24 10:23:17;;;;;;;4.63;3.03;;;12.20;79.40;;;;;;5485548;26;20222;-74
2024/04/24 10:25:43;;;;;;;4.20;2.77;;;12.60;83.80;;;;;;5488520;26;20206;-73
2024/04/24 10:28:10;;;;;;;4.87;2.77;;;12.80;80.80;;;;;;5487483;26;20230;-73
2024/04/24 10:30:37;;;;;;;4.50;2.90;;;12.70;74.10;;;;;;5487484;26;20615;-74
2024/04/24 10:33:05;;;;;;;5.20;3.33;;;12.70;77.30;;;;;;5487048;26;20290;-73
2024/04/24 10:35:31;;;;;;;5.73;2.90;;;12.50;80.70;;;;;;5487294;26;20210;-72
2024/04/24 10:37:57;;;;;;;4.73;3.10;;;12.10;80.90;;;;;;5487496;26;20269;-74
2024/04/24 10:40:27;;;;;;;8.73;3.47;;;11.90;89.10;;;;;;5487450;26;20222;-73
2024/04/24 10:42:57;;;;;;;4.97;3.40;;;11.80;90.50;;;;;;5486977;26;20230;-72
2024/04/24 10:45:32;;;;;;;7.17;3.77;;;11.90;93.10;;;;;;5487816;26;20222;-74
2024/04/24 10:47:59;;;;;;;9.40;3.50;;;11.60;92.20;;;;;;5488093;26;20230;-72
2024/04/24 10:50:28;;;;;;;8.13;3.77;;;11.40;94.00;;;;;;5487862;26;20270;-74
2024/04/24 10:52:55;;;;;;;10.00;3.80;;;11.40;99.90;;;;;;5487411;26;20252;-73
2024/04/24 10:55:21;;;;;;;4.83;3.20;;;11.70;96.30;;;;;;5487710;26;20248;-73
2024/04/24 10:57:51;;;;;;;3.33;3.03;;;11.80;91.50;;;;;;5487362;26;20214;-73
2024/04/24 11:00:19;;;;;;;3.13;2.80;;;11.60;89.90;;;;;;5487909;26;20752;-73
2024/04/24 11:02:46;;;;;;;4.13;3.40;;;11.40;89.60;;;;;;5487570;26;20226;-74
2024/04/24 11:05:12;;;;;;;9.97;3.20;;;11.10;91.60;;;;;;5487664;26;20276;-73
2024/04/24 11:07:38;;;;;;;7.87;3.40;;;10.90;90.00;;;;;;5487720;26;20257;-73
2024/04/24 11:10:06;;;;;;;6.87;3.80;;;10.60;93.70;;;;;;5487269;26;20226;-72
2024/04/24 11:12:37;;;;;;;5.30;3.47;;;10.00;94.10;;;;;;5487138;26;20292;-74
2024/04/24 11:15:04;;;;;;;9.67;3.23;;;9.70;98.90;;;;;;5486813;26;20260;-75
2024/04/24 11:17:30;;;;;;;8.90;3.40;;;9.80;99.90;;;;;;5487605;26;20218;-75
2024/04/24 11:19:55;;;;;;;3.53;3.23;;;10.10;99.90;;;;;;5486940;26;20265;-73
2024/04/24 11:22:30;;;;;;;6.40;3.20;;;10.20;99.90;;;;;;5487326;26;20218;-75
2024/04/24 11:24:56;;;;;;;6.30;3.27;;;9.70;99.90;;;;;;5488221;26;20225;-74
2024/04/24 11:27:25;;;;;;;6.73;3.90;;;9.00;99.90;;;;;;5484126;26;20214;-74
2024/04/24 11:29:54;;;;;;;6.13;4.30;;;8.30;99.90;;;;;;5451341;26;20262;-75
2024/04/24 11:32:22;;;;;;;4.53;3.83;;;7.80;99.90;;;;;;5482163;26;20337;-74
2024/04/24 11:34:49;;;;;;;5.43;3.70;;;7.60;99.90;;;;;;5458719;26;20242;-75
2024/04/24 11:37:16;;;;;;;12.27;4.50;;;7.50;99.90;;;;;;5487745;26;20218;-75
2024/04/24 11:39:42;;;;;;;5.13;4.00;;;7.70;99.90;;;;;;5486521;26;20721;-74
2024/04/24 11:42:09;;;;;;;8.00;4.20;;;8.00;99.90;;;;;;5487057;26;20305;-75
2024/04/24 11:44:35;;;;;;;7.73;3.37;;;8.30;99.90;;;;;;5450907;26;20238;-75
2024/04/24 11:47:01;;;;;;;5.43;4.17;;;8.40;99.90;;;;;;5477318;26;20230;-74
2024/04/24 11:49:26;;;;;;;5.70;4.10;;;8.60;99.90;;;;;;5488683;26;20222;-75
2024/04/24 11:51:53;;;;;;;4.73;3.70;;;8.50;99.90;;;;;;5488061;26;20230;-74
2024/04/24 11:54:19;;;;;;;4.33;3.87;;;8.40;99.90;;;;;;5453376;26;20225;-74
2024/04/24 11:56:45;;;;;;;4.70;4.17;;;8.50;99.90;;;;;;5487416;26;20318;-75
2024/04/24 11:59:14;;;;;;;5.90;3.93;;;8.80;99.90;;;;;;5487847;26;20218;-74
2024/04/24 12:01:40;;;;;;;7.87;4.30;;;9.10;99.90;;;;;;5487583;26;20277;-75
2024/04/24 12:04:09;;;;;;;7.80;4.03;;;9.40;99.90;;;;;;5487817;26;20211;-74
2024/04/24 12:06:42;;;;;;;6.80;5.00;;;9.40;99.90;;;;;;5487823;26;20270;-75
2024/04/24 12:09:12;;;;;;;4.63;3.77;;;9.70;99.90;;;;;;5486949;26;20296;-75
2024/04/24 12:11:40;;;;;;;5.60;4.20;;;10.00;99.90;;;;;;5486292;26;20638;-73
2024/04/24 12:14:06;;;;;;;3.97;3.50;;;10.20;99.90;;;;;;5487390;26;20286;-73
2024/04/24 12:16:33;;;;;;;3.10;2.90;;;10.50;99.90;;;;;;5487401;26;20264;-75
2024/04/24 12:18:59;;;;;;;5.17;3.27;;;10.80;99.90;;;;;;5486999;26;20590;-74
2024/04/24 12:21:24;;;;;;;4.67;3.20;;;11.30;99.90;;;;;;5486230;26;20607;-75
2024/04/24 12:23:51;;;;;;;3.47;3.17;;;11.70;99.90;;;;;;5487380;26;20315;-74
2024/04/24 12:26:16;;;;;;;4.77;3.33;;;12.00;99.90;;;;;;5487369;26;20245;-73
2024/04/24 12:28:42;;;;;;;4.60;3.40;;;12.30;99.90;;;;;;5487561;26;20218;-75
2024/04/24 12:31:08;;;;;;;3.50;3.13;;;12.50;99.90;;;;;;5486655;26;20273;-75
2024/04/24 12:33:35;;;;;;;4.30;3.43;;;12.50;99.90;;;;;;5487130;26;20214;-73
2024/04/24 12:36:00;;;;;;;3.53;3.23;;;12.30;99.90;;;;;;5487676;26;20557;-75
2024/04/24 12:38:26;;;;;;;4.77;3.30;;;11.70;99.90;;;;;;5487564;26;20268;-75
2024/04/24 12:40:52;;;;;;;6.93;4.07;;;11.00;99.90;;;;;;5487670;26;20233;-75
2024/04/24 12:43:17;;;;;;;4.20;3.90;;;10.50;99.90;;;;;;5487704;26;20264;-75
2024/04/24 12:45:43;;;;;;;5.17;3.97;;;10.10;99.90;;;;;;5487789;26;20298;-75
2024/04/24 12:48:09;;;;;;;4.10;3.70;;;9.90;99.90;;;;;;5487555;26;20218;-75
2024/04/24 12:50:35;;;;;;;4.67;3.70;;;9.80;99.90;;;;;;5487085;26;20218;-74
2024/04/24 12:53:02;;;;;;;4.70;3.67;;;9.50;99.90;;;;;;5487457;26;20718;-74